createdAt,value
2022-10-17T00:02:17.964Z,9.35
2022-10-17T00:04:45.686Z,15.07
2022-10-17T00:07:14.748Z,6.32
2022-10-17T00:09:44.299Z,6.35
2022-10-17T00:12:12.514Z,6.93
2022-10-17T00:14:40.452Z,9.98
2022-10-17T00:17:08.163Z,8.40
2022-10-17T00:19:35.959Z,9.30
2022-10-17T00:22:03.672Z,8.60
2022-10-17T00:24:33.061Z,6.72
2022-10-17T00:27:00.737Z,11.18
2022-10-17T00:29:28.629Z,7.90
2022-10-17T00:31:56.946Z,8.80
2022-10-17T00:34:24.744Z,17.90
2022-10-17T00:36:53.057Z,7.15
2022-10-17T00:39:20.800Z,11.38
2022-10-17T00:41:49.879Z,7.28
2022-10-17T00:44:55.198Z,8.18
2022-10-17T00:47:24.040Z,8.20
2022-10-17T00:49:51.981Z,10.50
2022-10-17T00:52:22.957Z,9.25
2022-10-17T00:54:55.410Z,9.57
2022-10-17T00:57:25.166Z,12.18
2022-10-17T00:59:55.260Z,9.52
2022-10-17T01:02:23.803Z,5.38
2022-10-17T01:04:55.925Z,7.07
2022-10-17T01:07:24.096Z,7.53
2022-10-17T01:09:51.961Z,9.55
2022-10-17T01:12:23.637Z,7.45
2022-10-17T01:15:04.051Z,11.07
2022-10-17T01:17:41.781Z,9.05
2022-10-17T01:20:47.909Z,8.50
2022-10-17T01:24:01.190Z,9.32
2022-10-17T01:26:43.856Z,8.02
2022-10-17T01:29:42.572Z,8.00
2022-10-17T01:32:17.380Z,15.55
2022-10-17T01:34:53.778Z,13.60
2022-10-17T01:37:29.488Z,14.40
2022-10-17T01:40:04.517Z,12.75
2022-10-17T01:42:38.548Z,16.83
2022-10-17T01:45:14.238Z,15.18
2022-10-17T01:47:44.000Z,16.23
2022-10-17T01:50:16.598Z,19.90
2022-10-17T01:52:47.844Z,18.33
2022-10-17T01:55:21.271Z,19.23
2022-10-17T01:57:51.947Z,19.10
2022-10-17T02:00:23.752Z,15.40
2022-10-17T02:02:59.224Z,18.40
2022-10-17T02:05:30.296Z,15.68
2022-10-17T02:07:57.997Z,19.63
2022-10-17T02:10:36.259Z,18.73
2022-10-17T02:13:10.841Z,20.98
2022-10-17T02:15:54.520Z,24.45
2022-10-17T02:18:42.748Z,15.55
2022-10-17T02:21:19.962Z,20.48
2022-10-17T02:23:54.801Z,19.80
2022-10-17T02:26:29.343Z,13.77
2022-10-17T02:29:08.005Z,18.60
2022-10-17T02:31:40.925Z,14.77
2022-10-17T02:34:17.546Z,21.20
2022-10-17T02:36:53.180Z,18.02
2022-10-17T02:39:24.459Z,13.98
2022-10-17T02:41:55.061Z,13.73
2022-10-17T02:44:23.958Z,14.13
2022-10-17T02:46:56.724Z,14.70
2022-10-17T02:49:29.827Z,14.05
2022-10-17T02:52:04.993Z,12.60
2022-10-17T02:54:38.101Z,14.40
2022-10-17T02:57:11.689Z,15.13
2022-10-17T02:59:42.087Z,11.53
2022-10-17T03:02:09.827Z,13.82
2022-10-17T03:04:39.253Z,15.75
2022-10-17T03:07:07.050Z,14.43
2022-10-17T03:09:34.766Z,11.55
2022-10-17T03:12:02.474Z,12.32
2022-10-17T03:14:30.608Z,15.35
2022-10-17T03:16:58.319Z,11.30
2022-10-17T03:19:27.051Z,10.98
2022-10-17T03:21:56.460Z,9.45
2022-10-17T03:24:24.194Z,10.93
2022-10-17T03:26:51.881Z,11.25
2022-10-17T03:29:19.711Z,15.15
2022-10-17T03:31:48.038Z,14.48
2022-10-17T03:34:16.774Z,10.45
2022-10-17T03:36:44.720Z,13.70
2022-10-17T03:39:14.151Z,13.90
2022-10-17T03:41:41.989Z,13.80
2022-10-17T03:44:10.199Z,12.90
2022-10-17T03:46:37.958Z,13.38
2022-10-17T03:49:05.693Z,9.45
2022-10-17T03:51:34.349Z,9.02
2022-10-17T03:54:05.667Z,10.30
2022-10-17T03:56:35.365Z,11.82
2022-10-17T03:59:06.207Z,14.10
2022-10-17T04:01:36.620Z,13.18
2022-10-17T04:04:04.462Z,11.40
2022-10-17T04:06:35.200Z,8.25
2022-10-17T04:09:03.153Z,13.82
2022-10-17T04:11:55.350Z,12.80
2022-10-17T04:14:23.882Z,17.83
2022-10-17T04:16:53.465Z,13.07
2022-10-17T04:19:22.245Z,10.55
2022-10-17T04:21:50.786Z,11.05
2022-10-17T04:24:19.974Z,10.90
2022-10-17T04:27:05.416Z,10.48
2022-10-17T04:29:36.857Z,11.07
2022-10-17T04:32:15.235Z,9.02
2022-10-17T04:34:49.623Z,12.63
2022-10-17T04:37:18.198Z,10.43
2022-10-17T04:39:47.460Z,10.93
2022-10-17T04:42:16.873Z,10.50
2022-10-17T04:44:44.614Z,8.13
2022-10-17T04:47:14.721Z,13.65
2022-10-17T04:49:42.796Z,10.93
2022-10-17T04:52:11.847Z,11.57
2022-10-17T04:54:46.994Z,12.93
2022-10-17T04:57:16.721Z,14.82
2022-10-17T04:59:52.835Z,10.98
2022-10-17T05:02:55.750Z,9.25
2022-10-17T05:05:23.490Z,9.13
2022-10-17T05:07:54.556Z,11.05
2022-10-17T05:10:26.191Z,12.73
2022-10-17T05:12:56.568Z,8.48
2022-10-17T05:15:28.299Z,8.35
2022-10-17T05:17:56.956Z,8.65
2022-10-17T05:20:26.960Z,9.50
2022-10-17T05:22:55.104Z,16.88
2022-10-17T05:25:24.321Z,13.20
2022-10-17T05:27:52.113Z,13.40
2022-10-17T05:30:21.462Z,8.77
2022-10-17T05:32:53.864Z,8.90
2022-10-17T05:35:22.056Z,11.20
2022-10-17T05:37:49.783Z,7.70
2022-10-17T05:40:18.898Z,10.13
2022-10-17T05:42:47.989Z,11.32
2022-10-17T05:45:17.276Z,12.75
2022-10-17T05:47:46.334Z,9.77
2022-10-17T05:50:14.131Z,11.30
2022-10-17T05:53:03.019Z,8.90
2022-10-17T05:55:30.838Z,11.60
2022-10-17T05:58:00.788Z,15.73
2022-10-17T06:00:33.256Z,8.20
2022-10-17T06:03:02.586Z,7.55
2022-10-17T06:05:30.288Z,14.35
2022-10-17T06:08:01.852Z,13.02
2022-10-17T06:10:32.213Z,9.57
2022-10-17T06:13:00.969Z,7.50
2022-10-17T06:15:28.726Z,9.57
2022-10-17T06:18:03.660Z,9.57
2022-10-17T06:20:31.703Z,8.85
2022-10-17T06:22:59.435Z,11.50
2022-10-17T06:25:42.895Z,8.23
2022-10-17T06:28:11.516Z,11.85
2022-10-17T06:30:39.974Z,11.45
2022-10-17T06:33:09.181Z,9.15
2022-10-17T06:35:37.105Z,11.15
2022-10-17T06:38:05.346Z,7.47
2022-10-17T06:40:34.244Z,9.55
2022-10-17T06:43:01.951Z,8.90
2022-10-17T06:45:52.519Z,6.38
2022-10-17T06:48:34.181Z,11.30
2022-10-17T06:51:13.996Z,8.15
2022-10-17T06:53:54.942Z,8.50
2022-10-17T06:56:41.113Z,5.85
2022-10-17T06:59:27.317Z,7.05
2022-10-17T07:02:06.827Z,5.28
2022-10-17T07:04:36.054Z,5.10
2022-10-17T07:07:04.241Z,8.68
2022-10-17T07:09:34.521Z,7.68
2022-10-17T07:12:05.248Z,12.65
2022-10-17T07:14:33.029Z,13.07
2022-10-17T07:17:01.314Z,10.18
2022-10-17T07:19:31.904Z,6.07
2022-10-17T07:22:00.948Z,9.60
2022-10-17T07:24:29.116Z,8.82
2022-10-17T07:27:08.760Z,6.78
2022-10-17T07:29:36.707Z,8.52
2022-10-17T07:32:10.896Z,7.57
2022-10-17T07:34:38.893Z,8.88
2022-10-17T07:37:09.936Z,7.88
2022-10-17T07:39:40.260Z,9.48
2022-10-17T07:42:08.885Z,7.25
2022-10-17T07:44:36.695Z,12.25
2022-10-17T07:47:04.982Z,6.47
2022-10-17T07:49:32.854Z,10.48
2022-10-17T07:52:00.600Z,8.50
2022-10-17T07:54:29.648Z,12.20
2022-10-17T07:56:57.367Z,4.78
2022-10-17T07:59:25.153Z,5.25
2022-10-17T08:01:56.007Z,9.23
2022-10-17T08:04:24.261Z,10.15
2022-10-17T08:06:56.452Z,7.95
2022-10-17T08:09:29.633Z,12.10
2022-10-17T08:11:57.336Z,9.00
2022-10-17T08:14:25.137Z,8.25
2022-10-17T08:16:55.284Z,8.40
2022-10-17T08:19:23.079Z,9.52
2022-10-17T08:21:51.787Z,8.40
2022-10-17T08:24:19.634Z,8.10
2022-10-17T08:26:51.624Z,8.40
2022-10-17T08:29:19.885Z,9.82
2022-10-17T08:31:48.401Z,12.25
2022-10-17T08:34:17.718Z,15.30
2022-10-17T08:36:45.451Z,18.30
2022-10-17T08:39:13.136Z,7.63
2022-10-17T08:42:02.328Z,9.32
2022-10-17T08:44:40.597Z,4.13
2022-10-17T08:47:15.374Z,5.13
2022-10-17T08:49:48.588Z,7.38
2022-10-17T08:52:23.069Z,10.85
2022-10-17T08:54:52.483Z,7.85
2022-10-17T08:57:21.745Z,7.55
2022-10-17T08:59:53.011Z,5.85
2022-10-17T09:02:32.935Z,8.90
2022-10-17T09:05:29.096Z,12.50
2022-10-17T09:08:08.737Z,8.25
2022-10-17T09:10:50.277Z,9.93
2022-10-17T09:13:32.262Z,5.95
2022-10-17T09:16:25.480Z,5.78
2022-10-17T09:19:04.069Z,9.07
2022-10-17T09:21:43.785Z,6.00
2022-10-17T09:24:17.821Z,6.75
2022-10-17T09:26:46.967Z,6.57
2022-10-17T09:29:22.490Z,6.72
2022-10-17T09:34:28.897Z,8.10
2022-10-17T09:36:58.759Z,9.60
2022-10-17T09:39:29.121Z,6.38
2022-10-17T09:41:59.145Z,4.20
2022-10-17T09:44:31.905Z,8.15
2022-10-17T09:47:22.325Z,6.97
2022-10-17T09:49:51.464Z,6.22
2022-10-17T09:52:22.535Z,7.15
2022-10-17T09:54:52.285Z,7.15
2022-10-17T09:57:21.811Z,10.45
2022-10-17T09:59:58.827Z,9.60
2022-10-17T10:02:29.038Z,5.10
2022-10-17T10:05:07.474Z,8.13
2022-10-17T10:07:38.950Z,9.07
2022-10-17T10:10:24.103Z,5.22
2022-10-17T10:13:05.437Z,7.28
2022-10-17T10:15:38.618Z,4.32
2022-10-17T10:21:10.746Z,10.50
2022-10-17T10:23:42.940Z,7.60
2022-10-17T10:26:22.557Z,8.57
2022-10-17T10:28:57.651Z,7.30
2022-10-17T10:31:33.500Z,5.72
2022-10-17T10:34:04.256Z,5.30
2022-10-17T10:36:46.972Z,6.47
2022-10-17T10:39:34.733Z,5.90
2022-10-17T10:42:04.187Z,5.35
2022-10-17T10:44:34.026Z,4.68
2022-10-17T10:47:20.840Z,4.97
2022-10-17T10:49:49.095Z,3.50
2022-10-17T10:52:26.121Z,6.47
2022-10-17T10:55:04.969Z,6.60
2022-10-17T10:57:37.811Z,4.93
2022-10-17T11:00:13.897Z,5.40
2022-10-17T11:02:52.768Z,5.03
2022-10-17T11:05:25.713Z,4.40
2022-10-17T11:08:00.527Z,8.10
2022-10-17T11:10:36.702Z,6.45
2022-10-17T11:13:07.667Z,3.97
2022-10-17T11:15:41.393Z,3.63
2022-10-17T11:18:17.490Z,4.38
2022-10-17T11:20:52.677Z,3.65
2022-10-17T11:23:25.539Z,6.30
2022-10-17T11:25:55.598Z,2.67
2022-10-17T11:28:25.778Z,3.08
2022-10-17T11:30:58.647Z,4.72
2022-10-17T11:33:31.671Z,2.22
2022-10-17T11:36:04.343Z,9.50
2022-10-17T11:38:41.813Z,4.27
2022-10-17T11:41:13.409Z,5.63
2022-10-17T11:43:49.878Z,8.27
2022-10-17T11:46:23.717Z,5.47
2022-10-17T11:49:05.722Z,2.33
2022-10-17T11:54:37.823Z,3.63
2022-10-17T11:57:19.359Z,4.95
2022-10-17T12:00:00.396Z,3.47
2022-10-17T12:02:37.863Z,5.18
2022-10-17T12:05:20.946Z,4.93
2022-10-17T12:07:53.491Z,5.38
2022-10-17T12:10:33.934Z,6.00
2022-10-17T12:13:35.617Z,4.72
2022-10-17T12:16:51.246Z,6.65
2022-10-17T12:19:32.623Z,2.70
2022-10-17T12:22:06.717Z,5.68
2022-10-17T12:24:38.480Z,3.05
2022-10-17T12:27:38.093Z,3.67
2022-10-17T12:30:15.919Z,3.03
2022-10-17T12:33:08.326Z,5.38
2022-10-17T12:35:37.968Z,4.50
2022-10-17T12:38:31.004Z,6.72
2022-10-17T12:41:03.340Z,3.38
2022-10-17T12:43:44.959Z,3.17
2022-10-17T12:46:13.304Z,3.90
2022-10-17T12:49:20.569Z,5.45
2022-10-17T12:52:15.815Z,2.65
2022-10-17T12:55:00.265Z,3.80
2022-10-17T12:57:42.332Z,4.63
2022-10-17T13:00:19.021Z,3.05
2022-10-17T13:02:48.120Z,4.13
2022-10-17T13:05:20.242Z,6.47
2022-10-17T13:07:50.417Z,4.13
2022-10-17T13:10:24.347Z,7.63
2022-10-17T13:12:55.927Z,2.88
2022-10-17T13:15:23.925Z,5.38
2022-10-17T13:17:59.310Z,2.63
2022-10-17T13:20:31.476Z,4.00
2022-10-17T13:23:00.045Z,4.82
2022-10-17T13:25:29.579Z,4.85
2022-10-17T13:28:15.755Z,2.95
2022-10-17T13:30:49.623Z,5.05
2022-10-17T13:33:31.557Z,6.68
2022-10-17T13:36:01.011Z,5.70
2022-10-17T13:38:34.877Z,8.32
2022-10-17T13:41:34.170Z,4.43
2022-10-17T13:44:02.570Z,2.63
2022-10-17T13:46:39.922Z,5.88
2022-10-17T13:49:16.422Z,5.07
2022-10-17T13:51:46.925Z,7.03
2022-10-17T13:54:19.962Z,2.75
2022-10-17T13:56:56.891Z,4.45
2022-10-17T13:59:26.936Z,2.28
2022-10-17T14:01:55.879Z,4.80
2022-10-17T14:04:23.615Z,2.92
2022-10-17T14:06:52.487Z,4.80
2022-10-17T14:09:24.579Z,3.70
2022-10-17T14:12:02.832Z,5.70
2022-10-17T14:14:46.223Z,7.78
2022-10-17T14:17:24.729Z,4.95
2022-10-17T14:20:16.071Z,2.72
2022-10-17T14:22:47.047Z,5.60
2022-10-17T14:25:36.672Z,4.43
2022-10-17T14:28:15.830Z,2.95
2022-10-17T14:31:01.407Z,3.30
2022-10-17T14:33:31.540Z,4.82
2022-10-17T14:36:02.847Z,5.72
2022-10-17T14:38:31.341Z,4.38
2022-10-17T14:41:40.850Z,6.40
2022-10-17T14:43:56.644Z,5.72
2022-10-17T14:48:58.118Z,5.78
2022-10-17T14:51:25.808Z,6.03
2022-10-17T14:54:05.856Z,4.45
2022-10-17T14:56:42.750Z,7.45
2022-10-17T14:59:15.683Z,4.85
2022-10-17T15:01:49.394Z,5.53
2022-10-17T15:04:17.209Z,5.05
2022-10-17T15:06:45.671Z,5.47
2022-10-17T15:09:13.413Z,24.20
2022-10-17T15:11:41.170Z,5.30
2022-10-17T15:14:08.837Z,8.30
2022-10-17T15:16:39.384Z,8.63
2022-10-17T15:19:07.133Z,13.35
2022-10-17T15:21:40.589Z,16.10
2022-10-17T15:24:09.710Z,7.78
2022-10-17T15:26:37.950Z,4.85
2022-10-17T15:29:05.691Z,5.45
2022-10-17T15:31:36.403Z,6.65
2022-10-17T15:34:05.533Z,4.95
2022-10-17T15:36:39.451Z,6.28
2022-10-17T15:39:07.445Z,4.95
2022-10-17T15:41:35.468Z,6.30
2022-10-17T15:44:03.199Z,7.30
2022-10-17T15:46:34.204Z,3.22
2022-10-17T15:49:03.895Z,4.30
2022-10-17T15:51:32.938Z,5.90
2022-10-17T15:54:01.396Z,4.50
2022-10-17T15:56:32.111Z,4.28
2022-10-17T15:59:00.036Z,4.25
2022-10-17T16:01:30.824Z,6.43
2022-10-17T16:03:58.949Z,6.45
2022-10-17T16:06:27.527Z,3.15
2022-10-17T16:08:56.669Z,2.67
2022-10-17T16:11:31.662Z,3.97
2022-10-17T16:14:01.386Z,6.65
2022-10-17T16:16:29.372Z,3.30
2022-10-17T16:19:00.357Z,8.80
2022-10-17T16:24:05.884Z,6.30
2022-10-17T16:26:33.615Z,17.13
2022-10-17T16:29:03.072Z,12.15
2022-10-17T16:31:33.168Z,11.63
2022-10-17T16:34:02.447Z,12.43
2022-10-17T16:36:30.562Z,6.97
2022-10-17T16:38:58.369Z,12.68
2022-10-17T16:41:29.093Z,7.10
2022-10-17T16:43:58.944Z,7.50
2022-10-17T16:46:29.408Z,11.27
2022-10-17T16:48:57.946Z,5.63
2022-10-17T16:51:26.148Z,8.70
2022-10-17T16:53:56.393Z,4.40
2022-10-17T16:56:25.553Z,3.20
2022-10-17T16:58:54.601Z,5.22
2022-10-17T17:01:24.802Z,3.83
2022-10-17T17:03:53.693Z,10.52
2022-10-17T17:06:24.431Z,7.22
2022-10-17T17:08:52.420Z,8.63
2022-10-17T17:11:22.052Z,5.18
2022-10-17T17:13:49.961Z,6.50
2022-10-17T17:16:21.377Z,8.73
2022-10-17T17:18:54.488Z,6.03
2022-10-17T17:21:22.125Z,4.40
2022-10-17T17:23:49.858Z,8.88
2022-10-17T17:26:20.291Z,4.80
2022-10-17T17:28:48.589Z,6.93
2022-10-17T17:31:18.063Z,7.38
2022-10-17T17:33:48.175Z,8.30
2022-10-17T17:36:18.360Z,8.27
2022-10-17T17:38:47.116Z,4.97
2022-10-17T17:41:16.579Z,6.53
2022-10-17T17:43:45.993Z,6.97
2022-10-17T17:46:14.501Z,13.40
2022-10-17T17:48:43.225Z,7.65
2022-10-17T17:51:14.929Z,5.60
2022-10-17T17:53:42.624Z,6.13
2022-10-17T17:56:14.072Z,7.00
2022-10-17T17:58:45.537Z,6.57
2022-10-17T18:01:18.241Z,13.60
2022-10-17T18:03:46.923Z,9.38
2022-10-17T18:06:16.733Z,7.53
2022-10-17T18:08:45.864Z,10.00
2022-10-17T18:11:17.044Z,5.35
2022-10-17T18:13:47.913Z,6.32
2022-10-17T18:16:16.774Z,9.07
2022-10-17T18:18:45.986Z,7.40
2022-10-17T18:21:16.027Z,5.72
2022-10-17T18:23:45.080Z,8.05
2022-10-17T18:26:14.358Z,5.95
2022-10-17T18:28:43.385Z,8.13
2022-10-17T18:31:13.506Z,13.30
2022-10-17T18:33:41.401Z,9.10
2022-10-17T18:36:11.396Z,10.57
2022-10-17T18:38:40.513Z,5.60
2022-10-17T18:41:11.911Z,16.13
2022-10-17T18:43:44.284Z,8.38
2022-10-17T18:46:14.825Z,12.48
2022-10-17T18:48:44.328Z,9.02
2022-10-17T18:51:12.483Z,12.15
2022-10-17T18:53:42.350Z,8.43
2022-10-17T18:56:10.518Z,9.00
2022-10-17T18:58:38.840Z,8.85
2022-10-17T19:01:11.405Z,7.53
2022-10-17T19:03:39.475Z,9.77
2022-10-17T19:06:10.819Z,7.03
2022-10-17T19:08:39.371Z,5.60
2022-10-17T19:11:10.230Z,10.40
2022-10-17T19:13:38.407Z,11.02
2022-10-17T19:16:07.713Z,8.75
2022-10-17T19:18:35.823Z,10.93
2022-10-17T19:21:04.494Z,10.85
2022-10-17T19:23:32.587Z,7.75
2022-10-17T19:26:03.570Z,5.82
2022-10-17T19:28:32.886Z,7.72
2022-10-17T19:31:01.125Z,8.68
2022-10-17T19:36:04.172Z,7.05
2022-10-17T19:38:32.197Z,9.50
2022-10-17T19:43:36.187Z,9.82
2022-10-17T19:46:06.040Z,10.50
2022-10-17T19:48:35.169Z,11.65
2022-10-17T19:51:02.915Z,15.57
2022-10-17T19:53:30.676Z,11.98
2022-10-17T19:55:59.394Z,11.27
2022-10-17T19:58:28.206Z,11.88
2022-10-17T20:01:01.000Z,13.55
2022-10-17T20:03:29.948Z,10.32
2022-10-17T20:05:57.738Z,13.88
2022-10-17T20:10:54.092Z,10.88
2022-10-17T20:13:22.749Z,11.50
2022-10-17T20:15:59.096Z,12.07
2022-10-17T20:18:27.869Z,9.45
2022-10-17T20:20:55.998Z,8.25
2022-10-17T20:23:24.053Z,13.95
2022-10-17T20:26:07.895Z,10.02
2022-10-17T20:28:47.059Z,12.77
2022-10-17T20:31:16.754Z,11.85
2022-10-17T20:33:44.493Z,9.88
2022-10-17T20:36:15.131Z,10.77
2022-10-17T20:38:42.832Z,13.88
2022-10-17T20:41:11.495Z,9.25
2022-10-17T20:43:39.544Z,9.48
2022-10-17T20:46:22.847Z,15.13
2022-10-17T20:48:54.222Z,13.13
2022-10-17T20:51:22.858Z,9.48
2022-10-17T20:53:50.633Z,11.85
2022-10-17T20:56:20.980Z,14.52
2022-10-17T20:58:53.183Z,15.48
2022-10-17T21:01:21.857Z,15.90
2022-10-17T21:03:49.684Z,11.30
2022-10-17T21:06:19.767Z,11.85
2022-10-17T21:08:48.257Z,16.50
2022-10-17T21:11:18.102Z,11.02
2022-10-17T21:13:46.964Z,13.38
2022-10-17T21:16:17.052Z,11.32
2022-10-17T21:18:45.548Z,15.85
2022-10-17T21:21:16.304Z,10.85
2022-10-17T21:23:48.167Z,12.77
2022-10-17T21:26:17.087Z,14.25
2022-10-17T21:28:46.386Z,13.40
2022-10-17T21:31:16.254Z,12.00
2022-10-17T21:33:45.575Z,14.20
2022-10-17T21:36:16.247Z,18.77
2022-10-17T21:38:46.538Z,12.07
2022-10-17T21:41:16.004Z,16.88
2022-10-17T21:43:44.486Z,11.20
2022-10-17T21:46:14.231Z,12.18
2022-10-17T21:48:42.332Z,13.18
2022-10-17T21:51:11.605Z,15.05
2022-10-17T21:53:39.885Z,12.30
2022-10-17T21:56:12.155Z,14.30
2022-10-17T21:58:40.145Z,12.10
2022-10-17T22:01:09.723Z,10.50
2022-10-17T22:03:42.632Z,13.80
2022-10-17T22:06:37.712Z,14.98
2022-10-17T22:09:04.619Z,15.95
2022-10-17T22:11:35.585Z,14.18
2022-10-17T22:14:07.089Z,16.15
2022-10-17T22:16:35.705Z,18.90
2022-10-17T22:19:06.432Z,16.00
2022-10-17T22:21:36.122Z,16.52
2022-10-17T22:24:06.000Z,12.38
2022-10-17T22:26:36.663Z,12.40
2022-10-17T22:29:05.310Z,18.27
2022-10-17T22:31:33.396Z,12.20
2022-10-17T22:34:01.301Z,15.73
2022-10-17T22:36:29.189Z,16.63
2022-10-17T22:38:56.982Z,20.30
2022-10-17T22:41:24.851Z,16.27
2022-10-17T22:43:53.884Z,18.42
2022-10-17T22:46:21.622Z,16.45
2022-10-17T22:48:49.285Z,14.88
2022-10-17T22:51:17.372Z,17.75
2022-10-17T22:53:45.174Z,15.48
2022-10-17T22:56:15.145Z,14.45
2022-10-17T22:58:43.122Z,10.50
2022-10-17T23:01:16.124Z,14.35
2022-10-17T23:03:44.422Z,13.32
2022-10-17T23:06:12.425Z,14.82
2022-10-17T23:08:41.080Z,11.25
2022-10-17T23:11:09.816Z,13.15
2022-10-17T23:13:37.733Z,13.13
2022-10-17T23:16:05.909Z,18.45
2022-10-17T23:18:34.929Z,14.68
2022-10-17T23:21:02.629Z,16.23
2022-10-17T23:23:30.322Z,13.70
2022-10-17T23:26:05.117Z,13.27
2022-10-17T23:28:35.351Z,12.82
2022-10-17T23:31:13.710Z,11.65
2022-10-17T23:33:44.832Z,14.13
2022-10-17T23:36:13.391Z,17.55
2022-10-17T23:38:42.936Z,14.13
2022-10-17T23:41:11.133Z,12.93
2022-10-17T23:43:38.866Z,14.50
2022-10-17T23:46:08.137Z,14.55
2022-10-17T23:48:36.059Z,15.90
2022-10-17T23:51:05.391Z,16.70
2022-10-17T23:53:33.069Z,17.80
2022-10-17T23:56:00.830Z,13.63
2022-10-17T23:58:28.541Z,15.93
